Time;durP1;ratioP1;P1;durP2;ratioP2;P2;SDS_P1;SDS_P2;PMS_P1;PMS_P2;Temp;Humidity;BMP_temperature;BMP_pressure;BME280_temperature;BME280_humidity;BME280_pressure;Samples;Min_cycle;Max_cycle;Signal;HPM_P1;HPM_P2
2023/06/07 00:02:23;;;;;;;13.50;5.43;;;12.40;99.90;;;;;;5070467;28;20440;-58
2023/06/07 00:04:49;;;;;;;14.20;5.78;;;12.40;99.90;;;;;;5070133;28;20119;-57
2023/06/07 00:07:15;;;;;;;18.05;5.70;;;12.40;99.90;;;;;;5068464;28;20085;-58
2023/06/07 00:09:41;;;;;;;12.10;3.35;;;12.30;99.90;;;;;;5069897;28;20090;-58
2023/06/07 00:12:07;;;;;;;17.20;5.85;;;12.30;99.90;;;;;;5069353;28;20499;-58
2023/06/07 00:14:33;;;;;;;15.63;5.90;;;12.30;99.90;;;;;;5051557;28;20067;-58
2023/06/07 00:16:59;;;;;;;16.50;5.75;;;12.30;99.90;;;;;;5070262;28;20500;-58
2023/06/07 00:19:25;;;;;;;17.25;6.32;;;12.30;99.90;;;;;;5069932;28;20055;-59
2023/06/07 00:21:51;;;;;;;12.13;4.22;;;12.30;99.90;;;;;;5069399;28;20036;-58
2023/06/07 00:24:18;;;;;;;16.08;6.32;;;12.20;99.90;;;;;;5052451;28;20098;-59
2023/06/07 00:26:43;;;;;;;16.33;4.32;;;12.30;99.90;;;;;;5052326;28;20399;-59
2023/06/07 00:29:10;;;;;;;16.02;5.88;;;12.20;99.90;;;;;;5070345;28;20044;-58
2023/06/07 00:31:36;;;;;;;16.40;5.82;;;12.20;99.90;;;;;;5070040;28;20032;-59
2023/06/07 00:34:02;;;;;;;13.18;5.25;;;12.30;99.90;;;;;;5070143;28;20119;-59
2023/06/07 00:36:29;;;;;;;16.73;6.00;;;12.20;99.90;;;;;;5069882;28;20082;-59
2023/06/07 00:38:55;;;;;;;10.60;5.55;;;12.20;99.90;;;;;;5070309;28;20476;-58
2023/06/07 00:41:21;;;;;;;10.32;5.68;;;12.10;99.90;;;;;;5070355;28;20484;-58
2023/06/07 00:43:47;;;;;;;12.82;5.50;;;12.10;99.90;;;;;;5035600;28;20041;-58
2023/06/07 00:46:19;;;;;;;13.55;6.40;;;12.10;99.90;;;;;;5052045;28;20041;-58
2023/06/07 00:48:45;;;;;;;13.60;4.15;;;12.00;99.90;;;;;;5069681;28;20053;-59
2023/06/07 00:51:11;;;;;;;14.50;4.80;;;12.00;99.90;;;;;;5069683;28;20120;-58
2023/06/07 00:53:37;;;;;;;14.35;5.90;;;11.90;99.90;;;;;;5069499;28;20483;-59
2023/06/07 00:56:05;;;;;;;13.63;5.45;;;11.90;99.90;;;;;;5069792;28;20064;-60
2023/06/07 00:58:32;;;;;;;14.88;6.30;;;11.90;99.90;;;;;;5069742;28;20028;-59
2023/06/07 01:01:00;;;;;;;15.88;4.75;;;11.90;99.90;;;;;;5069611;28;20121;-57
2023/06/07 01:03:27;;;;;;;14.70;5.35;;;11.80;99.90;;;;;;5069605;28;20037;-58
2023/06/07 01:05:53;;;;;;;18.83;7.28;;;11.70;99.90;;;;;;5069834;28;20072;-58
2023/06/07 01:08:20;;;;;;;18.30;6.88;;;11.70;99.90;;;;;;5069708;28;20496;-57
2023/06/07 01:10:47;;;;;;;15.50;7.18;;;11.80;99.90;;;;;;5069282;28;20141;-58
2023/06/07 01:13:14;;;;;;;17.08;4.85;;;11.80;99.90;;;;;;5069603;28;20133;-58
2023/06/07 01:15:40;;;;;;;14.50;5.35;;;11.70;99.90;;;;;;5051538;28;20045;-58
2023/06/07 01:18:09;;;;;;;19.42;6.97;;;11.70;99.90;;;;;;5070657;28;20040;-58
2023/06/07 01:20:39;;;;;;;18.65;7.13;;;11.60;99.90;;;;;;5073458;28;20036;-58
2023/06/07 01:23:09;;;;;;;17.08;6.75;;;11.60;99.90;;;;;;5072943;28;20032;-58
2023/06/07 01:25:34;;;;;;;13.43;6.88;;;11.60;99.90;;;;;;5038352;28;20040;-58
2023/06/07 01:28:01;;;;;;;15.15;6.95;;;11.50;99.90;;;;;;5073156;28;20046;-58
2023/06/07 01:30:31;;;;;;;16.88;5.00;;;11.50;99.90;;;;;;5073005;28;20040;-57
2023/06/07 01:32:58;;;;;;;18.35;8.20;;;11.50;99.90;;;;;;5073128;28;20043;-58
2023/06/07 01:35:25;;;;;;;15.93;7.00;;;11.40;99.90;;;;;;5072516;28;20040;-59
2023/06/07 01:37:52;;;;;;;15.32;7.15;;;11.40;99.90;;;;;;5072916;28;20040;-57
2023/06/07 01:40:20;;;;;;;19.85;7.35;;;11.40;99.90;;;;;;5072839;28;20044;-58
2023/06/07 01:42:47;;;;;;;16.90;7.32;;;11.40;99.90;;;;;;5072864;28;20041;-59
2023/06/07 01:45:13;;;;;;;16.20;7.80;;;11.40;99.90;;;;;;5056289;28;20106;-58
2023/06/07 01:47:39;;;;;;;22.08;8.07;;;11.40;99.90;;;;;;5052956;28;20445;-58
2023/06/07 01:50:06;;;;;;;18.67;7.60;;;11.30;99.90;;;;;;5052696;28;20099;-58
2023/06/07 01:52:32;;;;;;;17.73;6.03;;;11.30;99.90;;;;;;5052441;28;20071;-59
2023/06/07 01:54:58;;;;;;;17.35;7.85;;;11.20;99.90;;;;;;5057587;28;20036;-58
2023/06/07 01:57:35;;;;;;;17.55;5.38;;;11.20;99.90;;;;;;5064993;28;20512;-57
2023/06/07 02:00:13;;;;;;;14.25;8.13;;;11.20;99.90;;;;;;5061326;28;20040;-57
2023/06/07 02:02:55;;;;;;;19.92;5.35;;;11.10;99.90;;;;;;5063055;28;20041;-58
2023/06/07 02:05:33;;;;;;;16.20;8.02;;;11.00;99.90;;;;;;5052240;28;20486;-57
2023/06/07 02:08:02;;;;;;;23.23;9.00;;;11.10;99.90;;;;;;5065429;28;20067;-59
2023/06/07 02:10:29;;;;;;;22.40;9.00;;;11.00;99.90;;;;;;5054342;28;20037;-58
2023/06/07 02:12:56;;;;;;;28.95;10.48;;;11.00;99.90;;;;;;5057900;28;20045;-57
2023/06/07 02:15:22;;;;;;;19.95;9.48;;;11.00;99.90;;;;;;5057079;28;20414;-57
2023/06/07 02:17:57;;;;;;;20.98;6.72;;;11.00;99.90;;;;;;5053039;28;20032;-57
2023/06/07 02:20:27;;;;;;;17.88;6.57;;;10.90;99.90;;;;;;5059458;28;20095;-58
2023/06/07 02:22:52;;;;;;;27.50;6.72;;;10.80;99.90;;;;;;5067767;28;20040;-58
2023/06/07 02:25:18;;;;;;;20.90;9.93;;;10.80;99.90;;;;;;5055459;28;20094;-57
2023/06/07 02:27:44;;;;;;;24.00;10.30;;;10.80;99.90;;;;;;5058519;28;20055;-57
2023/06/07 02:30:10;;;;;;;20.70;6.32;;;10.90;99.90;;;;;;5058748;28;20091;-57
2023/06/07 02:32:38;;;;;;;21.67;10.15;;;10.90;99.90;;;;;;5053433;28;20476;-58
2023/06/07 02:35:05;;;;;;;24.63;10.07;;;10.90;99.90;;;;;;5057871;28;20041;-58
2023/06/07 02:37:31;;;;;;;21.17;9.80;;;10.90;99.90;;;;;;5056314;28;20110;-58
2023/06/07 02:39:57;;;;;;;19.90;9.25;;;10.90;99.90;;;;;;5056836;28;20841;-57
2023/06/07 02:42:23;;;;;;;18.33;6.57;;;10.90;99.90;;;;;;5059241;28;20039;-58
2023/06/07 02:44:49;;;;;;;18.25;10.07;;;10.90;99.90;;;;;;5053587;28;20036;-57
2023/06/07 02:47:14;;;;;;;20.98;6.75;;;10.90;99.90;;;;;;5058389;28;20094;-57
2023/06/07 02:49:41;;;;;;;17.70;9.77;;;10.90;99.90;;;;;;5051803;28;20052;-57
2023/06/07 02:52:07;;;;;;;19.35;7.13;;;10.90;99.90;;;;;;5059209;28;20135;-57
2023/06/07 02:54:36;;;;;;;16.02;9.60;;;10.90;99.90;;;;;;5066814;28;20056;-58
2023/06/07 02:57:01;;;;;;;20.80;9.85;;;10.90;99.90;;;;;;5052318;28;20040;-56
2023/06/07 02:59:27;;;;;;;13.88;6.10;;;10.90;99.90;;;;;;5067945;28;20395;-58
2023/06/07 03:01:53;;;;;;;15.27;6.45;;;10.90;99.90;;;;;;5069627;28;20117;-58
2023/06/07 03:04:19;;;;;;;17.98;10.75;;;10.90;99.90;;;;;;5069594;28;20131;-58
2023/06/07 03:06:46;;;;;;;19.52;10.13;;;10.90;99.90;;;;;;5069306;28;20040;-57
2023/06/07 03:09:15;;;;;;;20.95;10.07;;;10.80;99.90;;;;;;5069719;28;20040;-57
2023/06/07 03:11:40;;;;;;;17.30;6.57;;;10.80;99.90;;;;;;5069549;28;20119;-56
2023/06/07 03:14:06;;;;;;;21.67;11.18;;;10.80;99.90;;;;;;5069191;28;20169;-58
2023/06/07 03:16:32;;;;;;;19.35;7.53;;;10.80;99.90;;;;;;5069241;28;20443;-58
2023/06/07 03:18:57;;;;;;;19.33;7.60;;;10.80;99.90;;;;;;5069467;28;20146;-56
2023/06/07 03:21:23;;;;;;;22.38;11.57;;;10.70;99.90;;;;;;5069669;28;20040;-59
2023/06/07 03:23:49;;;;;;;17.42;7.18;;;10.80;99.90;;;;;;5067508;28;20055;-58
2023/06/07 03:26:16;;;;;;;18.20;12.13;;;10.70;99.90;;;;;;5069691;28;20047;-58
2023/06/07 03:28:42;;;;;;;19.10;12.25;;;10.80;99.90;;;;;;5069368;28;20086;-57
2023/06/07 03:31:08;;;;;;;21.67;7.70;;;10.80;99.90;;;;;;5068838;28;20039;-57
2023/06/07 03:33:33;;;;;;;18.70;10.85;;;10.70;99.90;;;;;;5050946;28;20123;-58
2023/06/07 03:35:59;;;;;;;24.65;6.95;;;10.70;99.90;;;;;;5070224;28;20032;-57
2023/06/07 03:38:25;;;;;;;22.05;10.05;;;10.80;99.90;;;;;;5052682;28;20032;-58
2023/06/07 03:40:50;;;;;;;20.30;9.93;;;10.80;99.90;;;;;;5070682;28;20124;-57
2023/06/07 03:43:16;;;;;;;18.75;6.28;;;10.90;99.90;;;;;;5069678;28;20109;-58
2023/06/07 03:45:42;;;;;;;21.63;9.52;;;10.90;99.90;;;;;;5052252;28;20045;-58
2023/06/07 03:48:07;;;;;;;17.38;8.82;;;10.90;99.90;;;;;;5052496;28;20041;-58
2023/06/07 03:50:33;;;;;;;11.98;5.72;;;11.00;99.90;;;;;;5070558;28;20059;-57
2023/06/07 03:52:59;;;;;;;15.20;5.97;;;10.90;99.90;;;;;;5070066;28;20478;-58
2023/06/07 03:55:24;;;;;;;15.43;6.13;;;10.90;99.90;;;;;;5070624;28;20139;-58
2023/06/07 03:57:50;;;;;;;22.33;6.60;;;10.80;99.90;;;;;;5070262;28;20088;-59
2023/06/07 04:00:17;;;;;;;22.05;8.13;;;10.80;99.90;;;;;;5070391;28;20403;-58
2023/06/07 04:02:43;;;;;;;22.40;6.97;;;10.80;99.90;;;;;;5070234;28;20064;-56
2023/06/07 04:05:09;;;;;;;23.05;9.70;;;10.70;99.90;;;;;;5070102;28;20047;-59
2023/06/07 04:07:34;;;;;;;25.42;9.82;;;10.80;99.90;;;;;;5070254;28;20051;-57
2023/06/07 04:10:00;;;;;;;19.48;8.75;;;10.80;99.90;;;;;;5070407;28;20032;-58
2023/06/07 04:12:26;;;;;;;18.70;8.77;;;10.80;99.90;;;;;;5069954;28;20051;-58
2023/06/07 04:14:51;;;;;;;19.85;9.40;;;10.80;99.90;;;;;;5052270;28;20145;-58
2023/06/07 04:17:17;;;;;;;21.10;8.55;;;10.90;99.90;;;;;;5070696;28;20036;-58
2023/06/07 04:19:43;;;;;;;14.50;5.32;;;10.90;99.90;;;;;;5070192;28;20044;-59
2023/06/07 04:22:08;;;;;;;19.80;9.93;;;11.00;99.90;;;;;;5070153;28;20494;-58
2023/06/07 04:24:34;;;;;;;12.65;4.85;;;11.00;99.90;;;;;;5070361;28;20047;-58
2023/06/07 04:27:01;;;;;;;18.75;6.18;;;11.00;99.90;;;;;;5069427;28;20036;-58
2023/06/07 04:29:27;;;;;;;19.52;5.88;;;11.00;99.90;;;;;;5069149;28;20048;-58
2023/06/07 04:31:56;;;;;;;16.55;8.30;;;11.00;99.90;;;;;;5051256;28;20139;-59
2023/06/07 04:34:25;;;;;;;18.52;6.05;;;11.10;99.90;;;;;;5068905;28;20055;-58
2023/06/07 04:36:52;;;;;;;18.63;6.18;;;11.20;99.90;;;;;;5069782;28;20044;-59
2023/06/07 04:39:18;;;;;;;19.45;6.13;;;11.20;99.90;;;;;;5070150;28;20504;-59
2023/06/07 04:41:45;;;;;;;21.08;6.60;;;11.20;99.90;;;;;;5070152;28;20064;-58
2023/06/07 04:44:11;;;;;;;19.02;5.93;;;11.20;99.90;;;;;;5070029;28;20040;-58
2023/06/07 04:46:39;;;;;;;20.08;7.55;;;11.30;99.90;;;;;;5069705;28;20708;-58
2023/06/07 04:49:05;;;;;;;16.08;6.95;;;11.40;99.90;;;;;;5070038;28;20043;-58
2023/06/07 04:51:31;;;;;;;18.40;5.40;;;11.50;99.90;;;;;;5070029;28;20036;-58
2023/06/07 04:54:01;;;;;;;14.23;6.53;;;11.50;99.90;;;;;;5072120;28;20377;-59
2023/06/07 04:56:30;;;;;;;21.88;5.68;;;11.60;99.90;;;;;;5073632;28;20059;-59
2023/06/07 04:58:56;;;;;;;17.90;5.30;;;11.50;99.90;;;;;;5073872;28;20064;-60
2023/06/07 05:01:22;;;;;;;16.45;4.88;;;11.60;99.90;;;;;;5073598;28;20044;-59
2023/06/07 05:03:50;;;;;;;17.33;6.22;;;11.60;99.90;;;;;;5056134;28;20095;-59
2023/06/07 05:06:19;;;;;;;16.45;4.78;;;11.70;99.90;;;;;;5073673;28;20144;-58
2023/06/07 05:08:45;;;;;;;13.55;4.78;;;11.70;99.90;;;;;;5073638;28;20043;-59
2023/06/07 05:11:10;;;;;;;15.27;4.40;;;11.80;99.90;;;;;;5073320;28;20070;-59
2023/06/07 05:13:36;;;;;;;14.75;4.15;;;11.80;99.90;;;;;;5073532;28;20040;-58
2023/06/07 05:16:02;;;;;;;13.57;3.90;;;11.80;99.90;;;;;;5073064;28;20032;-58
2023/06/07 05:18:28;;;;;;;17.02;5.30;;;11.80;99.90;;;;;;5073472;28;20048;-59
2023/06/07 05:20:54;;;;;;;14.57;5.10;;;11.90;99.90;;;;;;5073473;28;20036;-58
2023/06/07 05:23:20;;;;;;;26.27;4.18;;;12.00;99.90;;;;;;5073084;28;20047;-59
2023/06/07 05:25:46;;;;;;;12.40;5.32;;;12.00;99.90;;;;;;5073253;28;20047;-58
2023/06/07 05:28:12;;;;;;;17.38;5.68;;;12.10;99.90;;;;;;5073319;28;20024;-58
2023/06/07 05:30:39;;;;;;;12.77;5.18;;;12.10;99.90;;;;;;5072837;28;20068;-58
2023/06/07 05:33:07;;;;;;;17.17;5.30;;;12.20;99.90;;;;;;5057781;28;20059;-59
2023/06/07 05:35:33;;;;;;;17.92;5.32;;;12.20;99.90;;;;;;5071643;28;20044;-58
2023/06/07 05:37:59;;;;;;;18.73;5.63;;;12.30;99.90;;;;;;5073058;28;20036;-58
2023/06/07 05:40:25;;;;;;;15.98;4.55;;;12.30;99.90;;;;;;5073167;28;20090;-60
2023/06/07 05:42:50;;;;;;;14.52;4.97;;;12.30;99.90;;;;;;5072687;28;20040;-58
2023/06/07 05:45:17;;;;;;;16.00;5.57;;;12.30;99.90;;;;;;5072682;28;20047;-59
2023/06/07 05:47:44;;;;;;;17.25;4.60;;;12.30;99.90;;;;;;5038254;28;20124;-58
2023/06/07 05:50:11;;;;;;;17.17;4.13;;;12.30;99.90;;;;;;5072784;28;20045;-58
2023/06/07 05:52:37;;;;;;;19.20;6.10;;;12.40;99.90;;;;;;5072324;28;20412;-57
2023/06/07 05:55:04;;;;;;;15.13;6.28;;;12.40;99.90;;;;;;5072931;28;20166;-58
2023/06/07 05:57:29;;;;;;;16.95;4.72;;;12.40;99.90;;;;;;5072601;28;20056;-58
2023/06/07 05:59:55;;;;;;;18.08;5.75;;;12.40;99.90;;;;;;5072726;28;20517;-58
2023/06/07 06:02:23;;;;;;;14.88;4.40;;;12.40;99.90;;;;;;5072866;28;20480;-59
2023/06/07 06:04:51;;;;;;;18.50;5.57;;;12.50;99.90;;;;;;5071280;28;20044;-59
2023/06/07 06:07:17;;;;;;;15.93;5.55;;;12.50;99.90;;;;;;5072734;28;20040;-59
2023/06/07 06:09:43;;;;;;;16.92;5.85;;;12.60;99.90;;;;;;5072170;28;20419;-59
2023/06/07 06:12:10;;;;;;;16.33;5.88;;;12.70;99.90;;;;;;5072597;28;20039;-60
2023/06/07 06:14:36;;;;;;;17.10;5.82;;;12.80;99.90;;;;;;5071986;28;20377;-58
2023/06/07 06:17:02;;;;;;;20.08;5.20;;;12.80;99.90;;;;;;5072655;28;20457;-58
2023/06/07 06:19:28;;;;;;;16.08;5.80;;;12.80;99.90;;;;;;5072484;28;21453;-58
2023/06/07 06:21:53;;;;;;;16.10;6.97;;;12.80;99.90;;;;;;5052880;28;20039;-58
2023/06/07 06:24:19;;;;;;;17.00;5.72;;;12.90;99.90;;;;;;5072062;28;20115;-60
2023/06/07 06:26:45;;;;;;;14.88;4.43;;;12.90;99.90;;;;;;5072380;28;20052;-59
2023/06/07 06:29:10;;;;;;;11.95;4.75;;;12.90;99.90;;;;;;5072036;28;20043;-59
2023/06/07 06:31:36;;;;;;;15.02;5.43;;;12.90;99.90;;;;;;5072438;28;20076;-59
2023/06/07 06:34:02;;;;;;;20.67;5.93;;;12.90;99.90;;;;;;5062859;28;20049;-58
2023/06/07 06:36:28;;;;;;;12.95;4.15;;;13.00;99.90;;;;;;5072003;28;20032;-60
2023/06/07 06:38:54;;;;;;;17.00;5.22;;;13.00;99.90;;;;;;5071763;28;20446;-57
2023/06/07 06:41:20;;;;;;;13.90;5.40;;;13.00;99.90;;;;;;5044085;28;20094;-58
2023/06/07 06:43:46;;;;;;;17.33;5.80;;;13.10;99.90;;;;;;5062819;28;20036;-58
2023/06/07 06:46:11;;;;;;;15.57;5.20;;;13.10;99.90;;;;;;5061493;28;20040;-59
2023/06/07 06:48:37;;;;;;;15.43;6.10;;;13.10;99.90;;;;;;5062258;28;20033;-59
2023/06/07 06:51:03;;;;;;;17.70;6.30;;;13.20;99.90;;;;;;5062094;28;20036;-59
2023/06/07 06:53:29;;;;;;;18.98;5.25;;;13.20;99.90;;;;;;5043398;28;20040;-58
2023/06/07 06:55:54;;;;;;;19.20;6.43;;;13.30;99.90;;;;;;5061696;28;20079;-57
2023/06/07 06:58:20;;;;;;;16.05;5.88;;;13.30;99.90;;;;;;5061241;28;20066;-59
2023/06/07 07:00:46;;;;;;;15.07;6.43;;;13.40;99.90;;;;;;5062600;28;20391;-59
2023/06/07 07:03:12;;;;;;;17.10;6.18;;;13.50;99.90;;;;;;5062761;28;20474;-59
2023/06/07 07:05:37;;;;;;;15.73;7.32;;;13.40;99.90;;;;;;5063566;28;20141;-59
2023/06/07 07:08:03;;;;;;;15.65;6.40;;;13.40;99.90;;;;;;5044894;28;20049;-59
2023/06/07 07:10:29;;;;;;;16.98;7.20;;;13.50;99.90;;;;;;5063091;28;20060;-59
2023/06/07 07:12:54;;;;;;;16.23;5.82;;;13.50;99.90;;;;;;5063662;28;20042;-59
2023/06/07 07:15:20;;;;;;;14.70;6.15;;;13.40;99.90;;;;;;5043387;28;20041;-59
2023/06/07 07:17:48;;;;;;;16.38;5.55;;;13.40;99.90;;;;;;5061363;28;20442;-59
2023/06/07 07:20:14;;;;;;;14.32;4.45;;;13.40;99.90;;;;;;5062576;28;20207;-59
2023/06/07 07:22:41;;;;;;;11.00;4.80;;;13.40;99.90;;;;;;5062117;28;20039;-59
2023/06/07 07:25:07;;;;;;;14.75;4.45;;;13.40;99.90;;;;;;5063700;28;20036;-59
2023/06/07 07:27:33;;;;;;;13.90;4.55;;;13.40;99.90;;;;;;5060732;28;20045;-58
2023/06/07 07:30:00;;;;;;;15.13;5.28;;;13.50;99.90;;;;;;5061066;28;20116;-60
2023/06/07 07:32:26;;;;;;;15.38;3.80;;;13.50;99.90;;;;;;5061589;28;20047;-59
2023/06/07 07:34:51;;;;;;;14.15;4.15;;;13.60;99.90;;;;;;5061546;28;20484;-58
2023/06/07 07:37:17;;;;;;;13.93;4.75;;;13.60;99.90;;;;;;5061940;28;20032;-60
2023/06/07 07:39:43;;;;;;;12.15;3.83;;;13.70;99.90;;;;;;5061924;28;20028;-58
2023/06/07 07:42:08;;;;;;;10.20;3.90;;;13.80;99.90;;;;;;5060919;28;20074;-58
2023/06/07 07:44:34;;;;;;;11.98;3.60;;;13.90;99.90;;;;;;5060641;28;20033;-59
2023/06/07 07:47:01;;;;;;;14.82;4.25;;;14.00;99.90;;;;;;5061949;28;20105;-59
2023/06/07 07:49:26;;;;;;;12.82;4.38;;;14.10;99.90;;;;;;5060522;28;20044;-58
2023/06/07 07:51:52;;;;;;;13.63;4.10;;;14.20;99.90;;;;;;5042652;28;20427;-58
2023/06/07 07:54:18;;;;;;;14.02;3.60;;;14.30;99.90;;;;;;5060096;28;20033;-58
2023/06/07 07:56:44;;;;;;;12.93;3.28;;;14.40;99.90;;;;;;5024859;28;20106;-58
2023/06/07 07:59:12;;;;;;;12.55;4.40;;;14.40;99.90;;;;;;5061516;28;20044;-60
2023/06/07 08:01:37;;;;;;;14.52;4.63;;;14.50;99.90;;;;;;5060694;28;20036;-58
2023/06/07 08:04:03;;;;;;;12.50;4.15;;;14.50;99.90;;;;;;5060640;28;20024;-59
2023/06/07 08:06:29;;;;;;;12.80;3.90;;;14.60;99.90;;;;;;5060213;28;20050;-58
2023/06/07 08:08:56;;;;;;;14.43;4.10;;;14.70;99.90;;;;;;5025180;28;20403;-59
2023/06/07 08:11:21;;;;;;;13.82;4.25;;;14.90;99.90;;;;;;5060729;28;20036;-58
2023/06/07 08:13:47;;;;;;;15.73;4.35;;;15.10;99.90;;;;;;5061546;28;20067;-58
2023/06/07 08:16:13;;;;;;;15.35;4.10;;;15.20;99.90;;;;;;5060196;28;20036;-58
2023/06/07 08:18:39;;;;;;;11.25;4.28;;;15.30;99.90;;;;;;5059319;28;20044;-57
2023/06/07 08:21:05;;;;;;;12.07;3.90;;;15.30;99.90;;;;;;5061216;28;20042;-59
2023/06/07 08:23:31;;;;;;;14.30;4.20;;;15.40;99.90;;;;;;5059140;28;20068;-59
2023/06/07 08:25:58;;;;;;;9.15;3.60;;;15.50;99.90;;;;;;5058634;28;21306;-58
2023/06/07 08:28:25;;;;;;;15.32;3.83;;;15.50;99.90;;;;;;5062593;28;20060;-58
2023/06/07 08:30:50;;;;;;;12.25;3.70;;;15.60;99.90;;;;;;5063972;28;20064;-58
2023/06/07 08:33:16;;;;;;;13.27;4.15;;;15.60;99.90;;;;;;5065240;28;20356;-58
2023/06/07 08:35:42;;;;;;;10.07;3.70;;;15.70;99.90;;;;;;5062569;28;20086;-58
2023/06/07 08:38:08;;;;;;;15.27;3.60;;;15.80;99.90;;;;;;5063456;28;20132;-59
2023/06/07 08:40:35;;;;;;;11.65;3.47;;;15.80;99.90;;;;;;5044411;28;20119;-58
2023/06/07 08:43:01;;;;;;;12.13;4.05;;;15.90;99.90;;;;;;5063236;28;20110;-58
2023/06/07 08:45:27;;;;;;;12.75;4.05;;;16.00;99.90;;;;;;5062969;28;20032;-58
2023/06/07 08:47:56;;;;;;;12.25;3.65;;;16.10;99.90;;;;;;5064052;28;20064;-58
2023/06/07 08:50:22;;;;;;;12.60;3.70;;;16.20;99.90;;;;;;5064154;28;20072;-58
2023/06/07 08:52:53;;;;;;;12.95;3.90;;;16.30;99.90;;;;;;5063786;28;20028;-58
2023/06/07 08:55:19;;;;;;;11.70;3.10;;;16.40;99.90;;;;;;5064058;28;20542;-58
2023/06/07 08:57:52;;;;;;;11.57;3.80;;;16.40;99.90;;;;;;5062619;28;20052;-59
2023/06/07 09:00:25;;;;;;;9.50;3.67;;;16.50;99.90;;;;;;5064381;28;20041;-59
2023/06/07 09:02:54;;;;;;;13.18;4.30;;;16.50;99.90;;;;;;5045621;28;20287;-58
2023/06/07 09:05:21;;;;;;;12.07;3.95;;;16.60;99.90;;;;;;5063944;28;20120;-58
2023/06/07 09:07:47;;;;;;;12.15;3.58;;;16.80;99.90;;;;;;5046147;28;20476;-59
2023/06/07 09:10:13;;;;;;;11.02;3.65;;;16.90;99.90;;;;;;5063828;28;20055;-58
2023/06/07 09:12:40;;;;;;;12.15;3.67;;;17.10;99.90;;;;;;5064920;28;20064;-58
2023/06/07 09:15:09;;;;;;;13.65;4.25;;;17.30;99.90;;;;;;5063834;28;20111;-59
2023/06/07 09:17:55;;;;;;;12.18;3.80;;;17.50;99.90;;;;;;5064046;28;20029;-58
2023/06/07 09:20:23;;;;;;;11.73;3.28;;;17.80;99.90;;;;;;5063225;28;20430;-59
2023/06/07 09:22:59;;;;;;;11.77;3.88;;;18.00;99.90;;;;;;5062695;28;20029;-59
2023/06/07 09:25:26;;;;;;;11.40;3.70;;;18.10;99.90;;;;;;5062649;28;20032;-59
2023/06/07 09:27:52;;;;;;;9.50;3.83;;;18.10;99.90;;;;;;5063850;28;20040;-59
2023/06/07 09:30:18;;;;;;;9.73;3.50;;;18.30;99.90;;;;;;5062840;28;20043;-59
2023/06/07 09:32:44;;;;;;;12.15;3.92;;;18.40;99.90;;;;;;5045724;28;20364;-58
2023/06/07 09:35:14;;;;;;;13.60;4.05;;;18.60;99.90;;;;;;5062458;28;20443;-58
2023/06/07 09:37:42;;;;;;;12.38;3.65;;;18.80;99.90;;;;;;5063050;28;20822;-59
2023/06/07 09:40:08;;;;;;;11.07;3.60;;;19.00;99.90;;;;;;5062244;28;20472;-59
2023/06/07 09:42:34;;;;;;;10.18;3.63;;;19.20;99.90;;;;;;5063170;28;20034;-59
2023/06/07 09:45:14;;;;;;;10.35;3.95;;;19.20;99.90;;;;;;5059201;28;20044;-59
2023/06/07 09:47:42;;;;;;;13.23;4.22;;;19.40;99.90;;;;;;5058210;28;20116;-58
2023/06/07 09:50:12;;;;;;;15.13;3.92;;;19.50;99.90;;;;;;5059285;28;20434;-58
2023/06/07 09:52:39;;;;;;;12.02;4.28;;;19.60;99.90;;;;;;5058737;28;20127;-54
2023/06/07 09:55:09;;;;;;;12.35;4.35;;;19.60;99.90;;;;;;5061532;28;20554;-59
2023/06/07 09:57:39;;;;;;;12.15;3.90;;;19.50;99.90;;;;;;5050265;28;20059;-59
2023/06/07 10:00:17;;;;;;;11.05;3.60;;;19.70;99.90;;;;;;5053006;28;20041;-59
2023/06/07 10:02:45;;;;;;;11.15;4.43;;;19.80;99.90;;;;;;5060609;28;20101;-59
2023/06/07 10:05:15;;;;;;;9.82;4.03;;;19.90;99.90;;;;;;5059955;28;20094;-59
2023/06/07 10:07:45;;;;;;;10.27;4.10;;;19.90;99.90;;;;;;5062381;28;20044;-58
2023/06/07 10:10:14;;;;;;;11.35;3.90;;;19.90;99.90;;;;;;5061704;28;20044;-59
2023/06/07 10:12:45;;;;;;;8.70;3.47;;;19.90;99.90;;;;;;5040397;28;20040;-59
2023/06/07 10:15:16;;;;;;;10.15;3.63;;;20.00;99.90;;;;;;5061901;28;20044;-58
2023/06/07 10:18:02;;;;;;;12.65;4.15;;;20.10;99.90;;;;;;5058579;28;20041;-59
2023/06/07 10:20:30;;;;;;;12.65;3.95;;;20.30;99.90;;;;;;5059153;28;20484;-58
2023/06/07 10:23:03;;;;;;;11.93;3.80;;;20.50;99.90;;;;;;5041463;28;20039;-59
2023/06/07 10:25:34;;;;;;;10.55;4.00;;;20.50;99.90;;;;;;5062471;28;20119;-59
2023/06/07 10:28:32;;;;;;;12.15;3.70;;;20.60;99.90;;;;;;5062523;28;20028;-58
2023/06/07 10:31:05;;;;;;;8.38;3.55;;;20.60;99.90;;;;;;5044178;28;20126;-59
2023/06/07 10:33:32;;;;;;;11.37;4.10;;;20.60;99.90;;;;;;5063516;28;20028;-58
2023/06/07 10:35:59;;;;;;;10.57;3.45;;;20.70;99.90;;;;;;5043692;28;20300;-61
2023/06/07 10:38:32;;;;;;;10.30;3.63;;;20.70;99.90;;;;;;5058761;28;20036;-61
2023/06/07 10:40:59;;;;;;;11.82;3.92;;;20.90;99.90;;;;;;5053991;28;20041;-61
2023/06/07 10:43:30;;;;;;;12.63;3.63;;;21.00;99.90;;;;;;5060336;28;20037;-61
2023/06/07 10:46:23;;;;;;;11.90;3.92;;;21.10;99.90;;;;;;5062347;28;20102;-61
2023/06/07 10:48:49;;;;;;;11.32;3.80;;;21.20;99.90;;;;;;5056735;28;20555;-60
2023/06/07 10:51:15;;;;;;;12.38;4.55;;;21.30;99.90;;;;;;5053644;28;20115;-60
2023/06/07 10:53:57;;;;;;;9.65;3.80;;;21.40;99.90;;;;;;5053874;28;20529;-61
2023/06/07 10:56:34;;;;;;;11.48;3.70;;;21.50;99.90;;;;;;5056627;28;20492;-61
2023/06/07 10:59:25;;;;;;;8.63;3.38;;;21.60;99.90;;;;;;5057950;28;20049;-58
2023/06/07 11:01:52;;;;;;;12.25;3.85;;;21.70;99.90;;;;;;5047267;28;20805;-59
2023/06/07 11:04:33;;;;;;;11.82;4.28;;;21.70;99.90;;;;;;5055839;28;20116;-58
2023/06/07 11:07:23;;;;;;;12.13;4.05;;;21.70;99.90;;;;;;5036963;28;20044;-59
2023/06/07 11:10:10;;;;;;;10.05;3.45;;;21.70;99.90;;;;;;5054290;28;20033;-58
2023/06/07 11:12:45;;;;;;;11.15;4.13;;;21.80;99.90;;;;;;5067431;28;20456;-58
2023/06/07 11:15:17;;;;;;;12.25;3.65;;;21.90;99.90;;;;;;5050699;28;20484;-61
2023/06/07 11:17:56;;;;;;;14.05;3.90;;;22.00;99.90;;;;;;5069603;28;20518;-58
2023/06/07 11:20:48;;;;;;;10.50;3.97;;;22.10;99.90;;;;;;5052280;28;20124;-58
2023/06/07 11:23:31;;;;;;;10.68;3.95;;;22.20;99.90;;;;;;5063412;28;20048;-57
2023/06/07 11:26:10;;;;;;;8.30;3.25;;;22.40;99.90;;;;;;5053538;28;20069;-59
2023/06/07 11:28:37;;;;;;;8.75;3.85;;;22.60;99.90;;;;;;5071084;28;20412;-58
2023/06/07 11:31:08;;;;;;;10.15;3.55;;;22.60;99.90;;;;;;5055319;28;20074;-58
2023/06/07 11:33:34;;;;;;;11.77;3.40;;;22.70;99.90;;;;;;5050988;28;20033;-59
2023/06/07 11:36:01;;;;;;;10.13;3.35;;;22.70;99.80;;;;;;5052175;28;20095;-59
2023/06/07 11:38:27;;;;;;;6.78;3.20;;;22.90;99.80;;;;;;5070564;28;20047;-57
2023/06/07 11:40:53;;;;;;;10.70;3.58;;;23.00;99.70;;;;;;5051722;28;20127;-59
2023/06/07 11:43:27;;;;;;;10.55;3.88;;;23.10;99.60;;;;;;5050634;28;20111;-58
2023/06/07 11:45:57;;;;;;;10.73;3.30;;;23.20;99.20;;;;;;5052210;28;20098;-59
2023/06/07 11:48:29;;;;;;;10.18;3.53;;;23.40;99.30;;;;;;5052586;28;20068;-59
2023/06/07 11:50:56;;;;;;;9.65;3.13;;;23.50;99.10;;;;;;5070622;28;20090;-61
2023/06/07 11:53:22;;;;;;;9.88;4.03;;;23.70;99.30;;;;;;5069798;28;20036;-59
2023/06/07 11:55:48;;;;;;;10.15;3.30;;;23.80;98.90;;;;;;5069726;28;20652;-60
2023/06/07 11:58:14;;;;;;;9.52;3.53;;;23.90;98.40;;;;;;5070259;28;20048;-58
2023/06/07 12:00:43;;;;;;;10.27;3.47;;;24.00;98.40;;;;;;5070493;28;20070;-59
2023/06/07 12:03:13;;;;;;;9.98;3.17;;;24.00;97.90;;;;;;5070443;28;20166;-60
2023/06/07 12:05:39;;;;;;;9.23;3.10;;;24.10;97.70;;;;;;5070389;28;20129;-60
2023/06/07 12:08:12;;;;;;;12.23;3.17;;;24.20;97.20;;;;;;5070339;28;20129;-59
2023/06/07 12:10:38;;;;;;;9.93;3.17;;;24.30;97.10;;;;;;5070650;28;20048;-58
2023/06/07 12:13:18;;;;;;;8.82;3.28;;;24.40;97.60;;;;;;5070274;28;20089;-60
2023/06/07 12:15:49;;;;;;;8.45;2.85;;;24.70;96.70;;;;;;5052184;28;20045;-59
2023/06/07 12:18:18;;;;;;;11.00;3.35;;;24.70;97.10;;;;;;5070136;28;20135;-58
2023/06/07 12:20:45;;;;;;;10.63;3.58;;;24.70;96.90;;;;;;5052019;28;20045;-60
2023/06/07 12:23:12;;;;;;;7.85;3.25;;;24.70;96.20;;;;;;5069645;28;20052;-59
2023/06/07 12:25:38;;;;;;;7.68;2.92;;;24.50;96.10;;;;;;5066161;28;20581;-59
2023/06/07 12:28:06;;;;;;;10.70;3.00;;;24.50;96.00;;;;;;5049069;28;20091;-59
2023/06/07 12:30:33;;;;;;;9.65;3.30;;;24.50;95.70;;;;;;5049964;28;20045;-59
2023/06/07 12:33:00;;;;;;;9.10;3.33;;;24.60;95.70;;;;;;5059050;28;20075;-59
2023/06/07 12:35:34;;;;;;;9.93;3.30;;;24.70;95.80;;;;;;5070550;28;20037;-58
2023/06/07 12:37:59;;;;;;;8.68;3.30;;;24.80;96.00;;;;;;5070548;28;20540;-60
2023/06/07 12:40:25;;;;;;;9.40;3.42;;;24.90;96.10;;;;;;5048826;28;20127;-59
2023/06/07 12:42:51;;;;;;;8.82;3.15;;;25.10;95.90;;;;;;5048890;28;20426;-60